Time;durP1;ratioP1;P1;durP2;ratioP2;P2;SDS_P1;SDS_P2;PMS_P1;PMS_P2;Temp;Humidity;BMP_temperature;BMP_pressure;BME280_temperature;BME280_humidity;BME280_pressure;Samples;Min_cycle;Max_cycle;Signal;HPM_P1;HPM_P2
2021/12/10 00:01:32;;;;;;;14.75;6.63;;;7.20;61.60;;;;;;6248642;28;20049;-68
2021/12/10 00:04:36;;;;;;;10.10;5.30;;;7.20;61.60;;;;;;6215570;28;20088;-68
2021/12/10 00:07:38;;;;;;;8.27;5.07;;;7.20;61.70;;;;;;6224439;28;20367;-67
2021/12/10 00:10:42;;;;;;;12.52;4.72;;;7.20;61.80;;;;;;6226975;28;20439;-68
2021/12/10 00:13:45;;;;;;;14.63;6.47;;;7.20;61.90;;;;;;6274183;28;20032;-68
2021/12/10 00:16:46;;;;;;;14.98;5.68;;;7.20;62.10;;;;;;6274101;28;20040;-67
2021/12/10 00:19:52;;;;;;;15.25;4.03;;;7.20;62.10;;;;;;6273532;28;20048;-68
2021/12/10 00:23:01;;;;;;;11.30;4.28;;;7.20;61.90;;;;;;6263306;28;20370;-67
2021/12/10 00:26:04;;;;;;;8.07;3.42;;;7.10;61.50;;;;;;6239569;28;20117;-68
2021/12/10 00:29:07;;;;;;;5.97;3.13;;;7.10;61.40;;;;;;6247249;28;20466;-67
2021/12/10 00:32:18;;;;;;;12.20;4.38;;;7.10;61.20;;;;;;6251796;28;20135;-68
2021/12/10 00:35:25;;;;;;;11.07;3.70;;;7.10;61.00;;;;;;6223400;28;20042;-67
2021/12/10 00:38:27;;;;;;;14.80;4.40;;;7.10;60.70;;;;;;6223303;28;20053;-67
2021/12/10 00:41:28;;;;;;;7.13;3.35;;;7.10;60.50;;;;;;6240869;28;20040;-67
2021/12/10 00:44:29;;;;;;;12.10;4.82;;;7.10;60.50;;;;;;6254266;28;20022;-67
2021/12/10 00:47:31;;;;;;;20.75;5.35;;;7.20;60.70;;;;;;6227792;28;20076;-67
2021/12/10 00:50:40;;;;;;;5.28;3.28;;;7.10;60.80;;;;;;6239806;28;20030;-68
2021/12/10 00:53:42;;;;;;;8.57;4.47;;;7.20;61.00;;;;;;6223326;28;20026;-68
2021/12/10 00:56:44;;;;;;;5.03;3.00;;;7.20;60.70;;;;;;6223944;28;20474;-67
2021/12/10 00:59:48;;;;;;;5.97;3.75;;;7.20;60.60;;;;;;6233132;28;20467;-69
2021/12/10 01:02:49;;;;;;;7.18;2.95;;;7.30;60.40;;;;;;6231556;28;20383;-69
2021/12/10 01:05:54;;;;;;;6.30;2.92;;;7.30;60.10;;;;;;6223325;28;20076;-68
2021/12/10 01:09:00;;;;;;;5.15;2.63;;;7.30;59.70;;;;;;6223300;28;20050;-67
2021/12/10 01:12:07;;;;;;;7.80;3.80;;;7.40;59.30;;;;;;6251339;28;20034;-67
2021/12/10 01:25:40;;;;;;;6.32;3.97;;;7.60;58.30;;;;;;6248551;28;20505;-68
2021/12/10 01:28:44;;;;;;;7.20;3.58;;;7.60;58.40;;;;;;6244134;28;20042;-68
2021/12/10 01:31:46;;;;;;;11.85;3.60;;;7.60;58.70;;;;;;6245751;28;20411;-68
2021/12/10 01:34:47;;;;;;;6.30;2.95;;;7.60;58.90;;;;;;6224717;28;20037;-67
2021/12/10 01:37:50;;;;;;;6.40;3.03;;;7.60;58.90;;;;;;6221459;28;20124;-67
2021/12/10 01:40:56;;;;;;;6.25;2.95;;;7.60;59.00;;;;;;6247832;28;20111;-67
2021/12/10 01:44:03;;;;;;;5.35;2.70;;;7.60;59.60;;;;;;6248202;28;20029;-68
2021/12/10 01:47:06;;;;;;;9.63;2.88;;;7.60;59.00;;;;;;6250521;28;20068;-67
2021/12/10 01:50:08;;;;;;;10.55;6.30;;;7.60;58.90;;;;;;6249407;28;20167;-68
2021/12/10 01:53:13;;;;;;;10.02;3.65;;;7.50;59.10;;;;;;6250713;28;20041;-67
2021/12/10 01:56:20;;;;;;;7.43;2.92;;;7.40;59.40;;;;;;6249145;28;20366;-67
2021/12/10 01:59:21;;;;;;;8.10;3.75;;;7.40;59.70;;;;;;6242923;28;20038;-67
2021/12/10 02:02:26;;;;;;;6.03;3.33;;;7.30;59.70;;;;;;6209140;28;20065;-68
2021/12/10 02:05:27;;;;;;;5.85;3.80;;;7.30;59.80;;;;;;6216698;28;20117;-67
2021/12/10 02:08:29;;;;;;;8.40;3.42;;;7.30;59.60;;;;;;6200594;28;20124;-68
2021/12/10 02:11:30;;;;;;;5.53;2.40;;;7.30;59.50;;;;;;6217801;28;20438;-68
2021/12/10 02:14:31;;;;;;;3.47;2.15;;;7.30;59.30;;;;;;6250086;28;20036;-68
2021/12/10 02:17:36;;;;;;;7.47;2.75;;;7.40;58.80;;;;;;6248092;28;20435;-68
2021/12/10 02:21:03;;;;;;;7.57;3.38;;;7.40;58.40;;;;;;6232175;28;20044;-68
2021/12/10 02:24:04;;;;;;;5.47;2.70;;;7.40;58.30;;;;;;6247164;28;20038;-68
2021/12/10 02:27:07;;;;;;;5.22;2.67;;;7.50;58.20;;;;;;6247233;28;20060;-68
2021/12/10 02:30:11;;;;;;;8.02;3.38;;;7.50;58.30;;;;;;6246366;28;20114;-67
2021/12/10 02:33:12;;;;;;;3.58;2.55;;;7.50;58.20;;;;;;6212059;28;20092;-68
2021/12/10 02:36:14;;;;;;;4.00;2.63;;;7.60;58.20;;;;;;6224055;28;20069;-68
2021/12/10 02:39:19;;;;;;;5.30;2.60;;;7.60;58.00;;;;;;6223806;28;20038;-68
2021/12/10 02:42:20;;;;;;;3.67;2.22;;;7.70;58.00;;;;;;6253730;28;20045;-68
2021/12/10 02:45:23;;;;;;;3.22;2.20;;;7.70;57.90;;;;;;6246848;28;20037;-67
2021/12/10 02:48:25;;;;;;;4.47;2.30;;;7.80;57.80;;;;;;6248289;28;20037;-69
2021/12/10 02:51:27;;;;;;;5.07;1.98;;;7.90;57.60;;;;;;6247409;28;20179;-67
2021/12/10 02:54:36;;;;;;;3.42;2.20;;;7.90;57.40;;;;;;6245765;28;20121;-67
2021/12/10 02:57:38;;;;;;;4.05;1.90;;;8.00;57.20;;;;;;6247613;28;20045;-67
2021/12/10 03:00:49;;;;;;;8.75;2.35;;;8.00;56.80;;;;;;6247849;28;20048;-68
2021/12/10 03:03:50;;;;;;;3.40;2.00;;;8.00;56.50;;;;;;6235574;28;20050;-68
2021/12/10 03:06:55;;;;;;;5.50;2.67;;;8.10;56.30;;;;;;6223562;28;20462;-68
2021/12/10 03:09:57;;;;;;;4.57;2.65;;;8.10;56.30;;;;;;6222049;28;20183;-68
2021/12/10 03:12:59;;;;;;;3.78;2.22;;;8.10;56.40;;;;;;6261289;28;20450;-68
2021/12/10 03:16:01;;;;;;;4.28;2.10;;;8.10;56.50;;;;;;6260013;28;20124;-68
2021/12/10 03:19:03;;;;;;;5.38;2.75;;;8.10;56.70;;;;;;6246475;28;20168;-68
2021/12/10 03:22:06;;;;;;;6.93;2.60;;;8.10;56.60;;;;;;6246181;28;20398;-67
2021/12/10 03:25:11;;;;;;;5.80;2.95;;;8.20;56.70;;;;;;6246211;28;20419;-67
2021/12/10 03:28:12;;;;;;;7.35;2.97;;;8.20;56.80;;;;;;6247128;28;20432;-68
2021/12/10 03:31:15;;;;;;;4.82;2.63;;;8.20;56.70;;;;;;6245838;28;20455;-68
2021/12/10 03:34:17;;;;;;;4.65;3.15;;;8.10;56.80;;;;;;6232147;28;20097;-68
2021/12/10 03:37:19;;;;;;;4.07;2.20;;;8.00;56.90;;;;;;6222652;28;20091;-68
2021/12/10 03:40:20;;;;;;;5.15;2.65;;;8.00;57.20;;;;;;6228809;28;20048;-68
2021/12/10 03:43:22;;;;;;;3.17;1.92;;;7.90;57.30;;;;;;6247689;28;20033;-68
2021/12/10 03:46:24;;;;;;;2.15;1.73;;;7.90;57.50;;;;;;6246858;28;20120;-68
2021/12/10 03:49:25;;;;;;;11.88;3.40;;;7.80;57.70;;;;;;6246992;28;20458;-68
2021/12/10 03:52:26;;;;;;;3.55;2.00;;;7.70;58.00;;;;;;6247113;28;20064;-68
2021/12/10 03:55:28;;;;;;;4.22;1.70;;;7.60;58.30;;;;;;6246794;28;20454;-67
2021/12/10 03:58:31;;;;;;;3.53;1.75;;;7.50;58.70;;;;;;6249565;28;20051;-67
2021/12/10 04:01:34;;;;;;;4.18;1.45;;;7.40;59.10;;;;;;6247665;28;20068;-67
2021/12/10 04:04:47;;;;;;;7.97;1.60;;;7.30;59.50;;;;;;6230467;28;20060;-67
2021/12/10 04:07:49;;;;;;;1.58;0.90;;;7.20;59.80;;;;;;6222923;28;20042;-67
2021/12/10 04:10:52;;;;;;;0.70;0.35;;;7.20;60.10;;;;;;6250610;28;20040;-68
2021/12/10 04:13:54;;;;;;;1.20;0.30;;;7.20;60.70;;;;;;6271813;28;20068;-67
2021/12/10 04:16:57;;;;;;;0.25;0.17;;;7.20;61.30;;;;;;6250309;28;20045;-67
2021/12/10 04:19:58;;;;;;;0.82;0.50;;;7.20;61.80;;;;;;6247293;28;20180;-68
2021/12/10 04:23:03;;;;;;;0.45;0.13;;;7.10;62.20;;;;;;6248346;28;20033;-67
2021/12/10 04:26:04;;;;;;;3.30;0.20;;;7.10;62.60;;;;;;6240001;28;20469;-68
2021/12/10 04:29:05;;;;;;;0.90;0.10;;;7.10;63.10;;;;;;6254693;28;20052;-68
2021/12/10 04:32:08;;;;;;;0.65;0.30;;;7.00;63.50;;;;;;6230721;28;20075;-68
2021/12/10 04:35:18;;;;;;;0.10;0.10;;;7.00;63.80;;;;;;6214306;28;20395;-68
2021/12/10 04:38:23;;;;;;;0.30;0.10;;;7.00;64.20;;;;;;6197166;28;20047;-67
2021/12/10 04:41:24;;;;;;;0.10;0.10;;;7.00;64.50;;;;;;6211289;28;20021;-68
2021/12/10 04:44:26;;;;;;;0.43;0.40;;;7.00;64.80;;;;;;6246473;28;20112;-68
2021/12/10 04:47:28;;;;;;;0.35;0.20;;;7.00;65.00;;;;;;6246938;28;20029;-68
2021/12/10 04:50:30;;;;;;;0.57;0.20;;;7.00;65.00;;;;;;6220524;28;20117;-68
2021/12/10 04:53:31;;;;;;;0.10;0.10;;;7.00;65.10;;;;;;6208541;28;20041;-68
2021/12/10 04:56:35;;;;;;;0.00;0.00;;;7.10;65.20;;;;;;6196788;28;20093;-68
2021/12/10 04:59:38;;;;;;;0.35;0.28;;;7.10;65.30;;;;;;6220696;28;20084;-69
2021/12/10 05:02:39;;;;;;;0.40;0.17;;;7.10;65.30;;;;;;6245109;28;20471;-70
2021/12/10 05:05:42;;;;;;;0.10;0.10;;;7.10;65.30;;;;;;6223085;28;20038;-70
2021/12/10 05:08:43;;;;;;;0.13;0.13;;;7.10;65.40;;;;;;6205667;28;20045;-70
2021/12/10 05:11:44;;;;;;;0.08;0.08;;;7.20;65.40;;;;;;6239564;28;20100;-70
2021/12/10 05:14:45;;;;;;;0.00;0.00;;;7.20;65.30;;;;;;6271289;28;20446;-70
2021/12/10 05:17:48;;;;;;;0.00;0.00;;;7.30;65.20;;;;;;6277176;28;20048;-70
2021/12/10 05:20:51;;;;;;;0.00;0.00;;;7.40;65.10;;;;;;6275968;28;20373;-70
2021/12/10 05:23:53;;;;;;;0.30;0.30;;;7.50;64.90;;;;;;6246627;28;20100;-70
2021/12/10 05:26:55;;;;;;;0.70;0.43;;;7.60;64.70;;;;;;6234446;28;20136;-70
2021/12/10 05:29:56;;;;;;;0.52;0.20;;;7.60;64.40;;;;;;6235531;28;20038;-70
2021/12/10 05:33:00;;;;;;;0.08;0.08;;;7.70;64.20;;;;;;6230654;28;20117;-70
2021/12/10 05:36:02;;;;;;;0.00;0.00;;;7.80;63.90;;;;;;6226646;28;20049;-70
2021/12/10 05:39:06;;;;;;;0.38;0.20;;;7.90;63.60;;;;;;6226163;28;20069;-70
2021/12/10 05:42:07;;;;;;;0.00;0.00;;;8.00;63.30;;;;;;6239731;28;20045;-69
2021/12/10 05:45:10;;;;;;;0.32;0.25;;;8.00;62.90;;;;;;6238225;28;20056;-70
2021/12/10 05:48:11;;;;;;;0.00;0.00;;;8.10;62.60;;;;;;6233351;28;20065;-70
2021/12/10 05:51:12;;;;;;;0.20;0.20;;;8.10;62.20;;;;;;6226390;28;20037;-70
2021/12/10 05:54:13;;;;;;;0.98;0.20;;;8.20;61.90;;;;;;6193759;28;20045;-70
2021/12/10 05:57:14;;;;;;;0.00;0.00;;;8.20;61.70;;;;;;6220808;28;20033;-69
2021/12/10 06:00:38;;;;;;;0.05;0.05;;;8.10;61.60;;;;;;6225784;28;20045;-70
2021/12/10 06:03:51;;;;;;;2.03;0.20;;;8.20;61.80;;;;;;6216182;28;20045;-69
2021/12/10 06:06:52;;;;;;;0.10;0.10;;;8.20;61.60;;;;;;6224009;28;20045;-68
2021/12/10 06:09:54;;;;;;;0.20;0.20;;;8.20;61.50;;;;;;6250393;28;20446;-68
2021/12/10 06:12:56;;;;;;;0.10;0.10;;;8.20;61.50;;;;;;6267996;28;20518;-69
2021/12/10 06:15:57;;;;;;;0.10;0.10;;;8.20;61.40;;;;;;6273596;28;20116;-69
2021/12/10 06:18:58;;;;;;;0.05;0.05;;;8.20;61.40;;;;;;6273908;28;20041;-69
2021/12/10 06:21:59;;;;;;;0.98;0.20;;;8.20;61.30;;;;;;6257376;28;20034;-69
2021/12/10 06:25:00;;;;;;;0.00;0.00;;;8.20;61.30;;;;;;6234563;28;20045;-67
2021/12/10 06:28:03;;;;;;;0.00;0.00;;;8.20;61.20;;;;;;6242606;28;20084;-67
2021/12/10 06:31:05;;;;;;;0.70;0.10;;;8.20;61.40;;;;;;6246508;28;20044;-69
2021/12/10 06:34:06;;;;;;;0.22;0.20;;;8.20;61.40;;;;;;6235987;28;20052;-69
2021/12/10 06:37:07;;;;;;;0.10;0.10;;;8.30;61.40;;;;;;6199482;28;20114;-70
2021/12/10 06:40:13;;;;;;;0.40;0.08;;;8.30;61.20;;;;;;6200272;28;20418;-69
2021/12/10 06:43:14;;;;;;;0.10;0.10;;;8.30;61.20;;;;;;6259522;28;20059;-70
2021/12/10 06:46:16;;;;;;;0.30;0.20;;;8.30;61.20;;;;;;6270139;28;20029;-69
2021/12/10 06:49:19;;;;;;;0.80;0.40;;;8.30;61.20;;;;;;6236477;28;20354;-68
2021/12/10 06:52:20;;;;;;;0.50;0.50;;;8.30;61.20;;;;;;6240990;28;20076;-69
2021/12/10 06:55:21;;;;;;;0.30;0.20;;;8.40;61.10;;;;;;6228175;28;20519;-69
2021/12/10 06:58:23;;;;;;;0.10;0.10;;;8.50;61.10;;;;;;6236489;28;20119;-68
2021/12/10 07:01:30;;;;;;;0.68;0.28;;;8.50;60.90;;;;;;6230771;28;20033;-68
2021/12/10 07:04:32;;;;;;;0.25;0.10;;;8.60;60.70;;;;;;6228695;28;20025;-68
2021/12/10 07:07:33;;;;;;;0.55;0.20;;;8.60;60.50;;;;;;6222961;28;20026;-68
2021/12/10 07:10:35;;;;;;;0.73;0.68;;;8.70;60.60;;;;;;6222404;28;20029;-68
2021/12/10 07:13:37;;;;;;;0.90;0.40;;;8.70;60.60;;;;;;6247142;28;20374;-68
2021/12/10 07:16:38;;;;;;;1.60;0.43;;;8.70;60.50;;;;;;6245075;28;20051;-68
2021/12/10 07:19:42;;;;;;;1.90;0.28;;;8.70;60.60;;;;;;6230677;28;20037;-68
2021/12/10 07:22:43;;;;;;;0.22;0.20;;;8.70;60.70;;;;;;6228586;28;20390;-69
2021/12/10 07:25:44;;;;;;;0.90;0.40;;;8.70;60.70;;;;;;6247506;28;20037;-68
2021/12/10 07:28:45;;;;;;;1.02;0.38;;;8.70;60.80;;;;;;6238689;28;20380;-68
2021/12/10 07:31:47;;;;;;;1.70;0.63;;;8.70;60.80;;;;;;6200973;28;20038;-68
2021/12/10 07:34:48;;;;;;;0.77;0.15;;;8.60;61.00;;;;;;6202458;28;20054;-69
2021/12/10 07:37:49;;;;;;;3.85;0.90;;;8.60;61.40;;;;;;6213302;28;20060;-68
2021/12/10 07:40:52;;;;;;;0.40;0.22;;;8.50;61.60;;;;;;6217408;28;20094;-69
2021/12/10 07:43:53;;;;;;;2.35;0.60;;;8.50;61.80;;;;;;6266142;28;20091;-68
2021/12/10 07:46:55;;;;;;;0.57;0.40;;;8.50;61.90;;;;;;6254644;28;20410;-68
2021/12/10 07:49:57;;;;;;;0.20;0.10;;;8.50;62.00;;;;;;6247640;28;20042;-69
2021/12/10 07:53:00;;;;;;;0.50;0.38;;;8.50;62.20;;;;;;6247873;28;20103;-69
2021/12/10 07:56:04;;;;;;;6.05;0.30;;;8.50;62.30;;;;;;6247251;28;20462;-69
2021/12/10 07:59:05;;;;;;;0.10;0.10;;;8.50;62.30;;;;;;6234939;28;20038;-69
2021/12/10 08:02:07;;;;;;;3.90;0.75;;;8.50;62.30;;;;;;6211065;28;20037;-68
2021/12/10 08:05:09;;;;;;;0.75;0.50;;;8.50;62.40;;;;;;6196312;28;20339;-69
2021/12/10 08:08:11;;;;;;;1.15;0.50;;;8.50;62.40;;;;;;6197435;28;20038;-68
2021/12/10 08:11:12;;;;;;;0.80;0.80;;;8.50;62.50;;;;;;6206426;28;20454;-69
2021/12/10 08:14:13;;;;;;;0.63;0.20;;;8.50;62.50;;;;;;6245469;28;20099;-69
2021/12/10 08:17:15;;;;;;;0.40;0.40;;;8.50;62.70;;;;;;6244771;28;20355;-70
2021/12/10 08:20:20;;;;;;;0.40;0.40;;;8.50;62.80;;;;;;6246569;28;20029;-68
2021/12/10 08:23:22;;;;;;;3.83;0.73;;;8.50;62.90;;;;;;6229811;28;20037;-68
2021/12/10 08:26:23;;;;;;;0.75;0.40;;;8.40;63.10;;;;;;6246105;28;20467;-68
2021/12/10 08:29:26;;;;;;;3.10;0.65;;;8.40;63.20;;;;;;6241356;28;20048;-69
2021/12/10 08:32:27;;;;;;;0.63;0.60;;;8.40;63.20;;;;;;6228450;28;20493;-69
2021/12/10 08:35:30;;;;;;;2.83;0.85;;;8.30;63.40;;;;;;6220941;28;20033;-69
2021/12/10 08:38:32;;;;;;;1.08;0.73;;;8.20;63.70;;;;;;6221079;28;20034;-69
2021/12/10 08:41:34;;;;;;;9.68;0.90;;;8.10;63.90;;;;;;6233483;28;20029;-69
2021/12/10 08:44:36;;;;;;;1.52;1.15;;;8.00;64.30;;;;;;6270755;28;20052;-69
2021/12/10 08:47:37;;;;;;;1.15;0.77;;;7.90;64.80;;;;;;6269912;28;20035;-69
2021/12/10 08:50:40;;;;;;;3.22;1.30;;;7.80;65.00;;;;;;6254226;28;20033;-69
2021/12/10 08:53:42;;;;;;;1.98;1.10;;;7.80;65.40;;;;;;6272183;28;20060;-69
2021/12/10 08:56:44;;;;;;;4.05;1.08;;;7.80;65.50;;;;;;6271183;28;20052;-69
2021/12/10 08:59:45;;;;;;;8.73;1.55;;;7.70;65.40;;;;;;6228188;28;20117;-68
2021/12/10 09:02:48;;;;;;;2.75;1.65;;;7.70;65.40;;;;;;6205506;28;20037;-68
2021/12/10 09:05:49;;;;;;;3.20;1.40;;;7.70;65.40;;;;;;6180899;28;20412;-68
2021/12/10 09:08:50;;;;;;;2.55;1.08;;;7.50;65.50;;;;;;6197130;28;20080;-70
2021/12/10 09:11:55;;;;;;;3.42;1.73;;;7.50;65.80;;;;;;6214173;28;20037;-68
2021/12/10 09:14:58;;;;;;;3.22;1.48;;;7.40;65.90;;;;;;6270356;28;20428;-69
2021/12/10 09:17:59;;;;;;;1.42;1.30;;;7.30;65.90;;;;;;6272054;28;20076;-68
2021/12/10 09:21:02;;;;;;;1.10;1.00;;;7.20;65.90;;;;;;6270996;28;20192;-69
2021/12/10 09:24:06;;;;;;;4.00;1.60;;;7.10;66.10;;;;;;6245038;28;20033;-68
2021/12/10 09:27:08;;;;;;;4.03;1.55;;;7.00;66.40;;;;;;6246293;28;20462;-69
2021/12/10 09:30:12;;;;;;;3.00;1.80;;;7.00;66.50;;;;;;6208866;28;20520;-68
2021/12/10 09:33:14;;;;;;;3.85;1.95;;;6.90;66.70;;;;;;6229863;28;20037;-69
2021/12/10 09:36:15;;;;;;;5.68;1.30;;;6.90;66.60;;;;;;6206473;28;20120;-69
2021/12/10 09:39:18;;;;;;;1.70;1.27;;;6.90;66.70;;;;;;6223381;28;20470;-70
2021/12/10 09:42:22;;;;;;;1.88;1.35;;;6.80;66.60;;;;;;6238630;28;20044;-69
2021/12/10 09:45:26;;;;;;;1.33;1.13;;;6.80;66.60;;;;;;6247825;28;20037;-70
2021/12/10 09:48:27;;;;;;;2.53;1.70;;;6.70;66.70;;;;;;6246343;28;20045;-68
2021/12/10 09:51:36;;;;;;;1.85;1.40;;;6.60;66.90;;;;;;6247693;28;20037;-68
2021/12/10 09:54:38;;;;;;;2.58;1.70;;;6.60;67.10;;;;;;6246354;28;20038;-69
2021/12/10 09:57:41;;;;;;;2.17;1.52;;;6.60;67.30;;;;;;6246917;28;20033;-69
2021/12/10 10:00:56;;;;;;;5.50;2.35;;;6.60;67.40;;;;;;6230310;28;20029;-69
2021/12/10 10:04:02;;;;;;;2.35;1.52;;;6.70;67.40;;;;;;6247325;28;20049;-68
2021/12/10 10:07:10;;;;;;;2.53;1.58;;;6.70;67.30;;;;;;6227127;28;20034;-68
2021/12/10 10:10:15;;;;;;;3.88;2.17;;;6.70;67.30;;;;;;6226455;28;20092;-68
2021/12/10 10:13:20;;;;;;;3.55;1.73;;;6.70;67.40;;;;;;6266899;28;20095;-69
2021/12/10 10:16:21;;;;;;;2.70;1.60;;;6.80;67.40;;;;;;6275982;28;20044;-69
2021/12/10 10:19:23;;;;;;;2.45;1.75;;;6.80;67.20;;;;;;6276248;28;20315;-70
2021/12/10 10:22:29;;;;;;;2.30;1.67;;;6.80;67.10;;;;;;6275928;28;20459;-69
2021/12/10 10:25:31;;;;;;;2.35;1.80;;;6.70;67.20;;;;;;6275567;28;20093;-69
2021/12/10 10:28:33;;;;;;;2.30;2.03;;;6.70;67.50;;;;;;6269933;28;20478;-68
2021/12/10 10:31:37;;;;;;;5.25;2.45;;;6.70;67.50;;;;;;6228341;28;20037;-68
2021/12/10 10:34:45;;;;;;;4.40;2.00;;;6.70;67.50;;;;;;6238154;28;20045;-68
2021/12/10 10:37:46;;;;;;;3.45;1.77;;;6.70;67.70;;;;;;6250255;28;20439;-68
2021/12/10 10:41:01;;;;;;;8.00;1.80;;;6.70;67.80;;;;;;6251172;28;20033;-69
2021/12/10 10:44:04;;;;;;;3.65;2.08;;;6.70;67.80;;;;;;6223605;28;20352;-68
2021/12/10 10:47:05;;;;;;;6.05;3.05;;;6.80;67.90;;;;;;6223892;28;20037;-69
2021/12/10 10:50:17;;;;;;;4.00;2.33;;;6.80;67.90;;;;;;6224900;28;20333;-68
2021/12/10 10:53:24;;;;;;;7.20;2.78;;;6.80;68.00;;;;;;6225305;28;20447;-68
2021/12/10 10:56:37;;;;;;;3.00;2.08;;;6.80;68.00;;;;;;6223959;28;20052;-68
2021/12/10 10:59:39;;;;;;;5.07;2.00;;;6.90;68.00;;;;;;6226912;28;20038;-70
2021/12/10 11:02:51;;;;;;;2.42;1.52;;;6.90;68.10;;;;;;6222682;28;20022;-70
2021/12/10 11:05:57;;;;;;;2.83;1.90;;;6.90;68.20;;;;;;6183051;28;20045;-71
2021/12/10 11:09:16;;;;;;;2.17;1.33;;;7.00;68.30;;;;;;6199644;28;20038;-70
2021/12/10 11:12:30;;;;;;;2.00;1.42;;;7.00;68.30;;;;;;6244535;28;20090;-69
2021/12/10 11:15:31;;;;;;;3.40;2.20;;;7.10;68.20;;;;;;6265216;28;20124;-69
2021/12/10 11:19:10;;;;;;;4.60;2.28;;;7.10;68.70;;;;;;6249846;28;20033;-70
2021/12/10 11:22:14;;;;;;;2.58;1.70;;;7.20;68.00;;;;;;6244327;28;20045;-69
2021/12/10 11:25:31;;;;;;;3.33;1.38;;;7.30;68.00;;;;;;6247131;28;20029;-70
2021/12/10 11:28:36;;;;;;;3.50;1.40;;;7.40;67.90;;;;;;6245277;28;20021;-69
2021/12/10 11:31:37;;;;;;;6.57;1.48;;;7.50;67.30;;;;;;6246415;28;20500;-68
2021/12/10 11:34:56;;;;;;;2.45;1.55;;;7.50;67.10;;;;;;6228465;28;20048;-69
2021/12/10 11:38:00;;;;;;;3.65;2.13;;;7.60;67.00;;;;;;6220970;28;20352;-69
2021/12/10 11:41:14;;;;;;;2.47;1.50;;;7.60;67.00;;;;;;6222133;28;20107;-70
2021/12/10 11:44:27;;;;;;;3.47;1.83;;;7.70;66.90;;;;;;6270565;28;20077;-69
2021/12/10 11:47:41;;;;;;;3.28;1.52;;;7.80;66.70;;;;;;6252253;28;20038;-70
2021/12/10 11:50:55;;;;;;;6.15;2.08;;;7.90;66.60;;;;;;6245168;28;20045;-68
2021/12/10 11:54:00;;;;;;;2.88;1.52;;;7.90;66.50;;;;;;6244874;28;20120;-69
2021/12/10 11:57:12;;;;;;;3.65;1.40;;;8.00;66.30;;;;;;6241025;28;20074;-69
2021/12/10 12:00:18;;;;;;;2.90;1.60;;;8.10;66.20;;;;;;6228047;28;20120;-69
2021/12/10 12:03:21;;;;;;;1.88;1.45;;;8.20;66.10;;;;;;6244027;28;20029;-69
2021/12/10 12:06:22;;;;;;;6.72;1.27;;;8.30;66.00;;;;;;6245704;28;20040;-71
2021/12/10 12:09:37;;;;;;;2.70;1.70;;;8.40;65.70;;;;;;6244147;28;20045;-70
2021/12/10 12:12:43;;;;;;;3.35;2.08;;;8.40;65.50;;;;;;6242855;28;20042;-69
2021/12/10 12:15:48;;;;;;;4.05;2.88;;;8.40;65.40;;;;;;6247084;28;20041;-69
2021/12/10 12:18:52;;;;;;;4.40;2.55;;;8.50;65.40;;;;;;6246778;28;20037;-69
2021/12/10 12:21:57;;;;;;;3.53;2.05;;;8.50;65.30;;;;;;6250916;28;20106;-69
2021/12/10 12:25:09;;;;;;;4.25;2.35;;;8.50;65.30;;;;;;6244772;28;20170;-68
2021/12/10 12:28:14;;;;;;;2.75;1.92;;;8.50;65.30;;;;;;6245310;28;20041;-69
2021/12/10 12:31:17;;;;;;;2.75;1.85;;;8.40;65.40;;;;;;6245998;28;20037;-68
2021/12/10 12:34:20;;;;;;;2.95;2.20;;;8.30;65.50;;;;;;6230266;28;20045;-68
2021/12/10 12:37:23;;;;;;;4.07;2.20;;;8.30;65.80;;;;;;6197356;28;20030;-68
2021/12/10 12:40:24;;;;;;;5.03;2.47;;;8.20;66.20;;;;;;6196654;28;20483;-69
2021/12/10 12:43:25;;;;;;;6.13;2.50;;;8.20;66.40;;;;;;6250279;28;20044;-69
2021/12/10 12:46:26;;;;;;;6.35;2.85;;;8.20;66.40;;;;;;6253166;28;20033;-69
2021/12/10 12:49:48;;;;;;;12.38;2.70;;;8.20;66.50;;;;;;6269635;28;20040;-69
2021/12/10 12:53:05;;;;;;;6.63;2.20;;;8.20;66.60;;;;;;6269186;28;20033;-68
2021/12/10 12:56:14;;;;;;;2.42;1.90;;;8.30;66.90;;;;;;6253369;28;20041;-68
2021/12/10 12:59:16;;;;;;;4.13;1.63;;;8.40;67.10;;;;;;6240000;28;20417;-69
2021/12/10 13:02:23;;;;;;;1.92;1.08;;;8.40;67.10;;;;;;6247261;28;20043;-70
2021/12/10 13:05:41;;;;;;;2.08;1.23;;;8.50;67.10;;;;;;6220796;28;20427;-68
2021/12/10 13:08:54;;;;;;;6.25;2.75;;;8.70;67.10;;;;;;6221002;28;20057;-70
2021/12/10 13:12:08;;;;;;;2.70;1.58;;;8.90;66.90;;;;;;6231239;28;20033;-69
2021/12/10 13:15:23;;;;;;;4.90;2.22;;;9.10;66.50;;;;;;6269203;28;20095;-69
2021/12/10 13:18:24;;;;;;;5.55;2.42;;;9.20;66.20;;;;;;6252885;28;20116;-68
2021/12/10 13:21:26;;;;;;;3.60;1.92;;;9.30;65.70;;;;;;6231801;28;20029;-69
2021/12/10 13:24:27;;;;;;;4.00;2.00;;;9.40;65.50;;;;;;6244593;28;20061;-69
2021/12/10 13:27:28;;;;;;;2.50;1.77;;;9.40;65.30;;;;;;6243874;28;20076;-69
2021/12/10 13:30:41;;;;;;;6.43;2.13;;;9.40;65.40;;;;;;6206348;28;20082;-68
2021/12/10 13:33:44;;;;;;;3.15;1.85;;;9.50;65.40;;;;;;6224190;28;20095;-68
2021/12/10 13:36:46;;;;;;;5.03;1.08;;;9.50;65.30;;;;;;6228968;28;20030;-68
2021/12/10 13:39:53;;;;;;;3.00;1.15;;;9.50;65.20;;;;;;6225214;28;20037;-69
2021/12/10 13:42:54;;;;;;;0.85;0.80;;;9.50;65.00;;;;;;6249058;28;20120;-69
2021/12/10 13:46:13;;;;;;;2.92;1.40;;;9.50;65.00;;;;;;6290150;28;20033;-69
2021/12/10 13:49:18;;;;;;;1.35;1.10;;;9.50;65.00;;;;;;6274232;28;20035;-69
2021/12/10 13:52:43;;;;;;;1.67;1.20;;;9.50;65.00;;;;;;6264743;28;20042;-69
2021/12/10 13:56:10;;;;;;;4.00;1.88;;;9.50;65.00;;;;;;6249752;28;20033;-69
2021/12/10 13:59:12;;;;;;;3.03;1.45;;;9.60;64.90;;;;;;6214676;28;20038;-69
2021/12/10 14:02:13;;;;;;;7.97;1.90;;;9.60;64.70;;;;;;6203754;28;20113;-69
2021/12/10 14:05:31;;;;;;;3.08;1.48;;;9.60;64.70;;;;;;6216709;28;20045;-69
2021/12/10 14:08:34;;;;;;;3.17;1.20;;;9.60;64.50;;;;;;6201838;28;20027;-69
2021/12/10 14:11:52;;;;;;;2.22;1.08;;;9.60;64.50;;;;;;6187471;28;20076;-69
2021/12/10 14:15:11;;;;;;;3.22;1.40;;;9.50;64.60;;;;;;6246978;28;20111;-69
2021/12/10 14:18:24;;;;;;;6.50;1.48;;;9.40;64.70;;;;;;6246631;28;20484;-70
2021/12/10 14:21:25;;;;;;;2.67;1.50;;;9.40;65.10;;;;;;6247987;28;20048;-70
2021/12/10 14:24:43;;;;;;;3.35;1.50;;;9.40;65.20;;;;;;6248216;28;20061;-69
2021/12/10 14:27:52;;;;;;;5.20;1.63;;;9.40;65.40;;;;;;6246122;28;20052;-69
2021/12/10 14:30:55;;;;;;;2.55;1.50;;;9.40;65.30;;;;;;6244672;28;20048;-69
2021/12/10 14:33:56;;;;;;;5.45;1.40;;;9.40;65.30;;;;;;6236005;28;20124;-69
2021/12/10 14:37:08;;;;;;;4.20;1.48;;;9.40;65.30;;;;;;6221986;28;20066;-70
2021/12/10 14:40:12;;;;;;;3.13;1.17;;;9.40;65.50;;;;;;6214327;28;20125;-68
2021/12/10 14:43:17;;;;;;;3.90;2.05;;;9.40;65.40;;;;;;6243835;28;20033;-69
2021/12/10 14:46:31;;;;;;;3.65;2.00;;;9.40;65.50;;;;;;6272849;28;20068;-69
2021/12/10 14:49:35;;;;;;;5.32;2.33;;;9.40;65.40;;;;;;6269772;28;20407;-70
2021/12/10 14:52:42;;;;;;;7.55;2.80;;;9.50;65.50;;;;;;6272472;28;20025;-69
2021/12/10 14:55:44;;;;;;;7.18;3.78;;;9.50;65.50;;;;;;6270584;28;20041;-69
2021/12/10 14:59:31;;;;;;;9.85;3.80;;;9.50;65.50;;;;;;6264545;28;20094;-69
2021/12/10 15:02:32;;;;;;;5.68;3.38;;;9.60;65.50;;;;;;6158521;28;20415;-70
2021/12/10 15:05:40;;;;;;;6.72;3.25;;;9.60;65.40;;;;;;6171430;28;20343;-69
2021/12/10 15:08:48;;;;;;;;;;;9.50;65.30;;;;;;6155986;28;20367;-69
2021/12/10 15:11:59;;;;;;;6.45;2.92;;;9.50;65.30;;;;;;6145754;28;19917;-69
2021/12/10 15:15:01;;;;;;;7.35;3.65;;;9.40;65.20;;;;;;6188840;28;20483;-69
2021/12/10 15:18:03;;;;;;;10.15;3.38;;;9.40;65.20;;;;;;6171265;28;20121;-69
2021/12/10 15:21:37;;;;;;;7.60;3.20;;;9.40;65.20;;;;;;6178001;28;20117;-69
2021/12/10 15:24:45;;;;;;;4.80;3.13;;;9.40;65.30;;;;;;6122894;29;20032;-68
2021/12/10 15:27:46;;;;;;;5.40;3.05;;;9.40;65.40;;;;;;6122513;29;20040;-69
2021/12/10 15:30:47;;;;;;;4.80;2.78;;;9.30;65.30;;;;;;6121013;29;20357;-68
2021/12/10 15:33:51;;;;;;;7.30;4.47;;;9.30;65.30;;;;;;6123552;29;20060;-69
2021/12/10 15:36:56;;;;;;;11.13;5.45;;;9.30;65.40;;;;;;6121916;28;20062;-69
2021/12/10 15:40:04;;;;;;;10.55;4.97;;;9.30;65.40;;;;;;6123477;28;20039;-68
2021/12/10 15:43:16;;;;;;;7.50;3.97;;;9.30;65.40;;;;;;6163517;28;20070;-70
2021/12/10 15:46:30;;;;;;;8.63;4.78;;;9.40;66.30;;;;;;6171255;28;20121;-69
2021/12/10 15:49:31;;;;;;;7.65;4.18;;;9.20;65.20;;;;;;6172258;28;20341;-69
2021/12/10 15:52:32;;;;;;;8.60;4.32;;;9.40;65.30;;;;;;6140090;28;20070;-69
2021/12/10 15:55:37;;;;;;;7.45;4.10;;;9.40;65.40;;;;;;6169389;28;20097;-69
2021/12/10 15:58:38;;;;;;;11.77;3.08;;;9.40;65.10;;;;;;6123989;28;20084;-69
2021/12/10 16:01:46;;;;;;;5.82;3.63;;;9.30;65.10;;;;;;6190242;28;20034;-69
2021/12/10 16:04:51;;;;;;;8.98;3.63;;;9.30;65.00;;;;;;6224733;28;20092;-70
2021/12/10 16:07:56;;;;;;;5.28;3.25;;;9.30;65.10;;;;;;6237250;28;20041;-69
2021/12/10 16:10:57;;;;;;;6.95;3.15;;;9.30;65.70;;;;;;6222576;28;20098;-69
2021/12/10 16:13:59;;;;;;;10.55;3.15;;;9.30;64.80;;;;;;6271901;28;20449;-69
2021/12/10 16:17:03;;;;;;;7.63;3.70;;;9.30;64.90;;;;;;6253105;28;20109;-68
2021/12/10 16:20:16;;;;;;;6.68;2.40;;;9.20;65.00;;;;;;6268081;28;20354;-70
2021/12/10 16:23:23;;;;;;;10.60;4.97;;;9.20;65.00;;;;;;6253242;28;20033;-69
2021/12/10 16:26:27;;;;;;;9.77;4.45;;;9.30;65.10;;;;;;6269994;28;20037;-68